Time;durP1;ratioP1;P1;durP2;ratioP2;P2;SDS_P1;SDS_P2;PMS_P1;PMS_P2;Temp;Humidity;BMP_temperature;BMP_pressure;BME280_temperature;BME280_humidity;BME280_pressure;Samples;Min_cycle;Max_cycle;Signal;HPM_P1;HPM_P2
2021/01/13 00:00:07;;;;;;;124.53;58.47;;;;;;;;;;5020016;28;20077;-93
2021/01/13 00:02:33;;;;;;;124.22;57.75;;;;;;;;;;5018575;28;20030;-95
2021/01/13 00:04:59;;;;;;;118.60;55.53;;;;;;;;;;5019776;28;20037;-95
2021/01/13 00:07:25;;;;;;;132.00;57.60;;;;;;;;;;5019459;28;20021;-93
2021/01/13 00:09:51;;;;;;;120.07;56.83;;;;;;;;;;5019432;28;20323;-94
2021/01/13 00:12:18;;;;;;;133.52;58.60;;;;;;;;;;5019329;28;20293;-94
2021/01/13 00:14:44;;;;;;;131.70;57.63;;;;;;;;;;5019609;28;20040;-93
2021/01/13 00:17:10;;;;;;;131.85;56.38;;;;;;;;;;5019425;28;20077;-94
2021/01/13 00:19:37;;;;;;;129.23;56.83;;;;;;;;;;5019540;28;20068;-93
2021/01/13 00:22:03;;;;;;;139.63;58.65;;;;;;;;;;5018255;28;20041;-93
2021/01/13 00:24:29;;;;;;;143.48;59.53;;;;;;;;;;5019252;28;20374;-93
2021/01/13 00:27:02;;;;;;;154.70;64.22;;;;;;;;;;5017518;28;20030;-93
2021/01/13 00:29:28;;;;;;;152.10;64.25;;;;;;;;;;5018759;28;20034;-94
2021/01/13 00:32:01;;;;;;;145.40;62.20;;;;;;;;;;5018243;28;20308;-93
2021/01/13 00:34:27;;;;;;;150.05;62.15;;;;;;;;;;5018996;28;20026;-93
2021/01/13 00:36:54;;;;;;;149.43;63.55;;;;;;;;;;5018867;28;20030;-94
2021/01/13 00:39:20;;;;;;;154.80;63.17;;;;;;;;;;5019026;28;20026;-95
2021/01/13 00:41:47;;;;;;;146.43;61.85;;;;;;;;;;5017843;28;20044;-94
2021/01/13 00:44:13;;;;;;;149.90;62.28;;;;;;;;;;5017748;28;20030;-94
2021/01/13 00:46:40;;;;;;;160.25;65.97;;;;;;;;;;5018727;28;20029;-94
2021/01/13 00:49:08;;;;;;;168.35;68.80;;;;;;;;;;5018765;28;20097;-92
2021/01/13 00:51:38;;;;;;;156.38;66.88;;;;;;;;;;5017740;28;20025;-90
2021/01/13 00:54:05;;;;;;;171.05;69.63;;;;;;;;;;5018498;28;20026;-92
2021/01/13 00:56:31;;;;;;;192.35;75.78;;;;;;;;;;5017554;28;20026;-91
2021/01/13 00:58:58;;;;;;;186.10;73.13;;;;;;;;;;5016988;28;20034;-91
2021/01/13 01:01:30;;;;;;;186.80;69.72;;;;;;;;;;5017888;28;20113;-91
2021/01/13 01:03:56;;;;;;;175.95;70.30;;;;;;;;;;5018648;28;20316;-92
2021/01/13 01:06:23;;;;;;;177.75;67.93;;;;;;;;;;5017766;28;20061;-90
2021/01/13 01:08:49;;;;;;;164.63;67.72;;;;;;;;;;5016981;28;20132;-92
2021/01/13 01:11:18;;;;;;;159.32;62.42;;;;;;;;;;5016844;28;20083;-90
2021/01/13 01:13:44;;;;;;;155.07;61.80;;;;;;;;;;5018188;28;20022;-93
2021/01/13 01:16:10;;;;;;;143.45;56.67;;;;;;;;;;5018019;28;20041;-93
2021/01/13 01:18:36;;;;;;;133.70;55.53;;;;;;;;;;5018251;28;20048;-95
2021/01/13 01:21:02;;;;;;;131.02;53.45;;;;;;;;;;5018051;28;20125;-93
2021/01/13 01:23:28;;;;;;;132.38;54.80;;;;;;;;;;5017201;28;20408;-94
2021/01/13 01:25:54;;;;;;;149.63;61.45;;;;;;;;;;5018028;28;20034;-93
2021/01/13 01:28:20;;;;;;;145.40;60.47;;;;;;;;;;5018102;28;20451;-93
2021/01/13 01:30:46;;;;;;;146.05;63.95;;;;;;;;;;5017065;28;20032;-92
2021/01/13 01:33:12;;;;;;;149.30;60.33;;;;;;;;;;5017887;28;20026;-92
2021/01/13 01:35:39;;;;;;;149.25;62.55;;;;;;;;;;5018092;28;20420;-90
2021/01/13 01:38:05;;;;;;;154.85;64.22;;;;;;;;;;5017911;28;20041;-91
2021/01/13 01:40:31;;;;;;;129.38;55.28;;;;;;;;;;5017901;28;20026;-91
2021/01/13 01:42:57;;;;;;;120.68;52.95;;;;;;;;;;5016607;28;20046;-92
2021/01/13 01:45:24;;;;;;;123.47;54.47;;;;;;;;;;5017165;28;20420;-92
2021/01/13 01:48:00;;;;;;;114.70;50.80;;;;;;;;;;5017723;28;20124;-91
2021/01/13 01:50:31;;;;;;;114.90;50.28;;;;;;;;;;5018036;28;20036;-91
2021/01/13 01:53:18;;;;;;;115.90;51.15;;;;;;;;;;5017087;28;20034;-92
2021/01/13 01:56:02;;;;;;;114.00;49.03;;;;;;;;;;5016608;28;20025;-91
2021/01/13 01:58:30;;;;;;;112.13;49.67;;;;;;;;;;5017709;28;20017;-91
2021/01/13 02:01:00;;;;;;;108.35;47.50;;;;;;;;;;5016716;28;20018;-92
2021/01/13 02:03:35;;;;;;;116.30;47.55;;;;;;;;;;5017723;28;20101;-93
2021/01/13 02:06:07;;;;;;;113.45;48.33;;;;;;;;;;5018132;28;20137;-92
2021/01/13 02:08:39;;;;;;;105.35;45.70;;;;;;;;;;5017709;28;20037;-92
2021/01/13 02:11:06;;;;;;;104.20;45.70;;;;;;;;;;5017623;28;20026;-93
2021/01/13 02:13:32;;;;;;;103.53;44.97;;;;;;;;;;5017707;28;20037;-94
2021/01/13 02:15:58;;;;;;;101.35;45.97;;;;;;;;;;5017489;28;20045;-94
2021/01/13 02:18:27;;;;;;;105.13;45.05;;;;;;;;;;5016594;28;20018;-93
2021/01/13 02:20:54;;;;;;;102.55;45.95;;;;;;;;;;5017713;28;20084;-94
2021/01/13 02:23:30;;;;;;;96.55;44.63;;;;;;;;;;5017656;28;20032;-94
2021/01/13 02:26:16;;;;;;;104.07;46.42;;;;;;;;;;5017515;28;20018;-92
2021/01/13 02:28:46;;;;;;;105.35;47.97;;;;;;;;;;4957547;28;20043;-93
2021/01/13 02:31:21;;;;;;;104.20;47.30;;;;;;;;;;4941441;29;20299;-93
2021/01/13 02:33:50;;;;;;;108.53;48.25;;;;;;;;;;4941579;29;20349;-93
2021/01/13 02:36:16;;;;;;;102.40;46.65;;;;;;;;;;4957557;28;20031;-93
2021/01/13 02:38:43;;;;;;;101.50;45.55;;;;;;;;;;4941505;29;20074;-94
2021/01/13 02:41:13;;;;;;;97.22;43.90;;;;;;;;;;4941292;29;20119;-94
2021/01/13 02:43:46;;;;;;;91.90;42.90;;;;;;;;;;4957496;28;20067;-95
2021/01/13 02:46:16;;;;;;;98.70;43.50;;;;;;;;;;4925274;29;20047;-93
2021/01/13 02:48:42;;;;;;;92.30;43.28;;;;;;;;;;4957431;29;20024;-94
2021/01/13 02:51:16;;;;;;;99.47;47.60;;;;;;;;;;4958655;28;20023;-93
2021/01/13 02:53:42;;;;;;;94.43;45.85;;;;;;;;;;4960860;28;20059;-90
2021/01/13 02:56:16;;;;;;;96.68;44.08;;;;;;;;;;4960771;28;20058;-91
2021/01/13 02:58:42;;;;;;;95.80;44.05;;;;;;;;;;4960686;28;20039;-90
2021/01/13 03:01:09;;;;;;;96.57;45.08;;;;;;;;;;4960923;28;20027;-91
2021/01/13 03:03:36;;;;;;;93.07;44.00;;;;;;;;;;4960735;28;20077;-91
2021/01/13 03:06:07;;;;;;;83.70;41.85;;;;;;;;;;4997665;28;20045;-91
2021/01/13 03:08:57;;;;;;;93.30;43.28;;;;;;;;;;5020664;28;20029;-91
2021/01/13 03:11:23;;;;;;;95.70;44.17;;;;;;;;;;5020500;28;20101;-93
2021/01/13 03:13:49;;;;;;;97.05;45.10;;;;;;;;;;5020505;28;20373;-93
2021/01/13 03:16:17;;;;;;;89.90;42.63;;;;;;;;;;5020752;28;20133;-93
2021/01/13 03:19:06;;;;;;;88.13;42.38;;;;;;;;;;5020379;28;20060;-91
2021/01/13 03:21:40;;;;;;;89.13;42.78;;;;;;;;;;4960453;29;20041;-91
2021/01/13 03:24:18;;;;;;;94.65;42.80;;;;;;;;;;4944468;29;20122;-91
2021/01/13 03:26:46;;;;;;;98.78;44.00;;;;;;;;;;4960251;28;20031;-92
2021/01/13 03:29:23;;;;;;;96.18;44.33;;;;;;;;;;4960306;28;20099;-93
2021/01/13 03:31:55;;;;;;;95.60;43.63;;;;;;;;;;4960204;28;20022;-91
2021/01/13 03:34:28;;;;;;;94.53;42.92;;;;;;;;;;4960239;29;20020;-91
2021/01/13 03:37:01;;;;;;;91.38;42.25;;;;;;;;;;4960114;29;20126;-91
2021/01/13 03:39:32;;;;;;;93.40;42.65;;;;;;;;;;4960014;29;20095;-92
2021/01/13 03:42:12;;;;;;;89.18;41.95;;;;;;;;;;4959894;29;20043;-91
2021/01/13 03:44:39;;;;;;;94.15;44.88;;;;;;;;;;4943725;29;20046;-91
2021/01/13 03:47:24;;;;;;;86.03;41.35;;;;;;;;;;4959934;29;20054;-90
2021/01/13 03:50:09;;;;;;;92.10;41.83;;;;;;;;;;4960020;28;20111;-93
2021/01/13 03:53:01;;;;;;;94.43;42.25;;;;;;;;;;4959899;29;20035;-93
2021/01/13 03:55:28;;;;;;;93.10;43.13;;;;;;;;;;4958757;29;20151;-93
2021/01/13 03:57:57;;;;;;;86.75;40.25;;;;;;;;;;4974777;28;20733;-91
2021/01/13 04:01:02;;;;;;;93.00;42.67;;;;;;;;;;5019614;28;20404;-93
2021/01/13 04:03:32;;;;;;;87.70;41.38;;;;;;;;;;4942616;29;20516;-90
2021/01/13 04:06:01;;;;;;;92.00;42.55;;;;;;;;;;4959513;28;20032;-92
2021/01/13 04:08:33;;;;;;;96.28;43.25;;;;;;;;;;4959598;29;20070;-91
2021/01/13 04:10:59;;;;;;;94.10;42.13;;;;;;;;;;4959637;29;20027;-90
2021/01/13 04:13:25;;;;;;;94.25;42.75;;;;;;;;;;4959694;29;20042;-92
2021/01/13 04:15:52;;;;;;;110.25;48.63;;;;;;;;;;4959412;28;20043;-92
2021/01/13 04:18:18;;;;;;;100.55;45.42;;;;;;;;;;4959340;28;20071;-92
2021/01/13 04:20:45;;;;;;;117.43;51.90;;;;;;;;;;4943317;29;20070;-91
2021/01/13 04:23:11;;;;;;;108.07;48.25;;;;;;;;;;4943265;29;20039;-94
2021/01/13 04:25:37;;;;;;;96.53;47.25;;;;;;;;;;4943233;29;20086;-92
2021/01/13 04:28:03;;;;;;;93.63;44.45;;;;;;;;;;4959036;29;20043;-92
2021/01/13 04:30:29;;;;;;;112.97;49.60;;;;;;;;;;4959021;29;20111;-93
2021/01/13 04:32:57;;;;;;;91.75;44.35;;;;;;;;;;4959095;29;20403;-93
2021/01/13 04:35:25;;;;;;;94.53;44.25;;;;;;;;;;5019211;28;20328;-93
2021/01/13 04:37:56;;;;;;;96.63;46.72;;;;;;;;;;5018983;28;20072;-93
2021/01/13 04:40:36;;;;;;;113.80;51.17;;;;;;;;;;5018994;28;20026;-94
2021/01/13 04:43:02;;;;;;;92.75;45.03;;;;;;;;;;5019123;28;20033;-93
2021/01/13 04:45:39;;;;;;;92.45;45.28;;;;;;;;;;5018520;28;20124;-93
2021/01/13 04:48:06;;;;;;;92.60;42.38;;;;;;;;;;5018759;28;20026;-93
2021/01/13 04:50:45;;;;;;;89.18;43.65;;;;;;;;;;5018609;28;20125;-94
2021/01/13 04:53:16;;;;;;;93.97;45.28;;;;;;;;;;5018723;28;20017;-93
2021/01/13 04:55:55;;;;;;;90.15;41.90;;;;;;;;;;5018632;28;20041;-93
2021/01/13 04:58:21;;;;;;;83.22;39.25;;;;;;;;;;5018575;28;20018;-93
2021/01/13 05:00:53;;;;;;;86.07;42.80;;;;;;;;;;5018565;28;20034;-94
2021/01/13 05:03:38;;;;;;;89.20;44.30;;;;;;;;;;5018490;28;20068;-92
2021/01/13 05:06:10;;;;;;;91.80;44.15;;;;;;;;;;5018412;28;20045;-92
2021/01/13 05:08:40;;;;;;;92.18;45.67;;;;;;;;;;5018660;28;20028;-92
2021/01/13 05:11:11;;;;;;;103.20;47.42;;;;;;;;;;5017663;28;20308;-92
2021/01/13 05:13:40;;;;;;;133.27;54.40;;;;;;;;;;5018312;28;20030;-93
2021/01/13 05:16:38;;;;;;;174.95;67.93;;;;;;;;;;5013841;28;20054;-94
2021/01/13 05:19:04;;;;;;;139.20;54.45;;;;;;;;;;5018520;28;20026;-93
2021/01/13 05:21:32;;;;;;;100.47;44.25;;;;;;;;;;5018613;28;20096;-92
2021/01/13 05:23:59;;;;;;;111.45;44.03;;;;;;;;;;5018365;28;20026;-91
2021/01/13 05:26:25;;;;;;;102.82;44.63;;;;;;;;;;5018033;28;20053;-94
2021/01/13 05:29:04;;;;;;;92.97;42.30;;;;;;;;;;5016918;28;20026;-92
2021/01/13 05:31:33;;;;;;;89.82;41.17;;;;;;;;;;5017890;28;20106;-95
2021/01/13 05:34:01;;;;;;;78.97;38.53;;;;;;;;;;5018063;28;20026;-94
2021/01/13 05:36:31;;;;;;;81.68;39.45;;;;;;;;;;5017194;28;20037;-93
2021/01/13 05:39:04;;;;;;;83.53;40.28;;;;;;;;;;5018185;28;20052;-94
2021/01/13 05:41:30;;;;;;;84.55;41.08;;;;;;;;;;5017080;28;20125;-93
2021/01/13 05:43:56;;;;;;;85.18;41.55;;;;;;;;;;5017406;28;20065;-93
2021/01/13 05:46:23;;;;;;;86.38;44.13;;;;;;;;;;5017830;28;20026;-94
2021/01/13 05:48:50;;;;;;;81.60;39.45;;;;;;;;;;5018102;28;20032;-94
2021/01/13 05:51:16;;;;;;;89.13;43.13;;;;;;;;;;5017699;28;20026;-94
2021/01/13 05:53:52;;;;;;;103.18;46.67;;;;;;;;;;5016858;28;20120;-93
2021/01/13 05:56:18;;;;;;;93.55;44.13;;;;;;;;;;5017708;28;20037;-92
2021/01/13 05:58:45;;;;;;;90.97;44.45;;;;;;;;;;5017616;28;20022;-92
2021/01/13 06:01:21;;;;;;;92.53;44.05;;;;;;;;;;5017585;28;20109;-94
2021/01/13 06:03:47;;;;;;;104.03;50.25;;;;;;;;;;5017903;28;20029;-92
2021/01/13 06:06:17;;;;;;;109.65;55.53;;;;;;;;;;5017713;28;20152;-93
2021/01/13 06:08:44;;;;;;;110.40;52.35;;;;;;;;;;5017646;28;20408;-92
2021/01/13 06:11:12;;;;;;;105.72;49.33;;;;;;;;;;5017670;28;20026;-92
2021/01/13 06:13:41;;;;;;;101.43;48.28;;;;;;;;;;5017703;28;20408;-92
2021/01/13 06:16:07;;;;;;;100.20;47.08;;;;;;;;;;5017563;28;20057;-92
2021/01/13 06:18:35;;;;;;;103.38;49.33;;;;;;;;;;5017172;28;20046;-92
2021/01/13 06:21:09;;;;;;;104.88;47.85;;;;;;;;;;5016343;28;20034;-93
2021/01/13 06:23:42;;;;;;;109.35;49.03;;;;;;;;;;5017672;28;20022;-93
2021/01/13 06:26:08;;;;;;;99.45;45.45;;;;;;;;;;5018121;28;20044;-91
2021/01/13 06:28:52;;;;;;;99.82;44.78;;;;;;;;;;5021576;28;20033;-92
2021/01/13 06:31:23;;;;;;;104.05;47.30;;;;;;;;;;5021144;28;20100;-93
2021/01/13 06:34:04;;;;;;;108.00;49.13;;;;;;;;;;5020383;28;20049;-93
2021/01/13 06:36:31;;;;;;;103.20;47.30;;;;;;;;;;5021401;28;20113;-95
2021/01/13 06:38:59;;;;;;;103.85;48.35;;;;;;;;;;5021015;28;20034;-93
2021/01/13 06:41:26;;;;;;;119.72;51.78;;;;;;;;;;5019649;28;20064;-93
2021/01/13 06:43:59;;;;;;;122.50;52.78;;;;;;;;;;5021047;28;20458;-95
2021/01/13 06:46:25;;;;;;;129.95;56.33;;;;;;;;;;5021214;28;20026;-95
2021/01/13 06:48:51;;;;;;;132.00;56.10;;;;;;;;;;5022390;28;20298;-96
2021/01/13 06:51:17;;;;;;;102.80;48.05;;;;;;;;;;5022699;28;20033;-95
2021/01/13 06:53:45;;;;;;;106.30;47.15;;;;;;;;;;5021120;28;20025;-94
2021/01/13 06:56:13;;;;;;;101.97;47.17;;;;;;;;;;5020775;28;20029;-93
2021/01/13 06:58:39;;;;;;;107.15;50.45;;;;;;;;;;5020752;28;20451;-93
2021/01/13 07:01:06;;;;;;;100.70;46.47;;;;;;;;;;5019300;28;20092;-93
2021/01/13 07:03:32;;;;;;;92.55;44.53;;;;;;;;;;5020751;28;20068;-94
2021/01/13 07:06:01;;;;;;;107.30;51.45;;;;;;;;;;5020540;28;20022;-94
2021/01/13 07:08:28;;;;;;;117.03;55.70;;;;;;;;;;5020469;28;20108;-93
2021/01/13 07:11:08;;;;;;;112.70;50.38;;;;;;;;;;5019803;28;20351;-93
2021/01/13 07:13:37;;;;;;;100.75;48.20;;;;;;;;;;5020595;28;20040;-93
2021/01/13 07:16:04;;;;;;;96.30;44.83;;;;;;;;;;5020520;28;20032;-90
2021/01/13 07:18:31;;;;;;;97.65;46.50;;;;;;;;;;5020141;28;20046;-91
2021/01/13 07:21:05;;;;;;;101.25;46.80;;;;;;;;;;5020023;28;20116;-91
2021/01/13 07:23:31;;;;;;;98.35;47.38;;;;;;;;;;5020548;28;20018;-91
2021/01/13 07:25:58;;;;;;;103.13;46.20;;;;;;;;;;5020352;28;20030;-91
2021/01/13 07:28:25;;;;;;;94.68;44.85;;;;;;;;;;5020294;28;20038;-91
2021/01/13 07:30:52;;;;;;;99.45;46.28;;;;;;;;;;5019903;28;20412;-91
2021/01/13 07:33:19;;;;;;;106.40;46.83;;;;;;;;;;5019235;28;20022;-90
2021/01/13 07:35:49;;;;;;;103.07;45.00;;;;;;;;;;5020142;28;20030;-91
2021/01/13 07:38:19;;;;;;;93.43;43.08;;;;;;;;;;5019861;28;20114;-89
2021/01/13 07:40:59;;;;;;;85.25;41.38;;;;;;;;;;5020149;28;20309;-90
2021/01/13 07:43:45;;;;;;;97.45;45.10;;;;;;;;;;5020519;28;20041;-90
2021/01/13 07:46:25;;;;;;;105.00;45.92;;;;;;;;;;4959930;28;20043;-90
2021/01/13 07:49:03;;;;;;;108.22;47.60;;;;;;;;;;4959993;29;20031;-90
2021/01/13 07:51:33;;;;;;;103.13;49.03;;;;;;;;;;4959618;28;20031;-92
2021/01/13 07:54:06;;;;;;;105.07;49.90;;;;;;;;;;4943759;29;20128;-93
2021/01/13 07:56:35;;;;;;;99.18;46.42;;;;;;;;;;4959093;28;20078;-92
2021/01/13 08:05:13;;;;;;;;;;;;;;;;;;4941139;29;20026;-95
2021/01/13 08:07:40;;;;;;;89.57;41.53;;;;;;;;;;4940694;29;19911;-91
2021/01/13 08:10:07;;;;;;;91.25;43.85;;;;;;;;;;4956202;29;20067;-92
2021/01/13 08:12:51;;;;;;;94.75;44.60;;;;;;;;;;4959419;29;20031;-93
2021/01/13 08:15:47;;;;;;;103.88;44.78;;;;;;;;;;4959612;28;20122;-93
2021/01/13 08:18:20;;;;;;;91.85;43.55;;;;;;;;;;4959444;29;20138;-92
2021/01/13 08:21:09;;;;;;;115.05;49.35;;;;;;;;;;4959208;29;20039;-93
2021/01/13 08:26:22;;;;;;;96.85;45.42;;;;;;;;;;4978376;28;20077;-92
2021/01/13 08:28:50;;;;;;;97.03;45.33;;;;;;;;;;4978368;28;20039;-91
2021/01/13 08:31:20;;;;;;;87.88;43.55;;;;;;;;;;4978423;28;20031;-91
2021/01/13 08:33:49;;;;;;;99.20;47.55;;;;;;;;;;4978330;28;20358;-94
2021/01/13 08:36:16;;;;;;;94.80;48.60;;;;;;;;;;4974250;28;20024;-91
2021/01/13 08:39:00;;;;;;;110.93;57.00;;;;;;;;;;4978187;28;20062;-91
2021/01/13 08:41:27;;;;;;;116.03;57.65;;;;;;;;;;4978174;28;20023;-89
2021/01/13 08:44:09;;;;;;;129.00;65.47;;;;;;;;;;4985892;28;20097;-90
2021/01/13 08:46:35;;;;;;;;;;;;;;;;;;4997802;28;20133;-95
2021/01/13 08:49:04;;;;;;;100.65;45.50;;;;;;;;;;4980851;28;20000;-95
2021/01/13 08:51:30;;;;;;;89.13;42.90;;;;;;;;;;4997650;28;20077;-95
2021/01/13 08:54:16;;;;;;;97.93;45.70;;;;;;;;;;4997557;28;20034;-94
2021/01/13 08:57:08;;;;;;;113.65;54.47;;;;;;;;;;4997162;28;20361;-92
2021/01/13 08:59:34;;;;;;;113.17;51.93;;;;;;;;;;4997794;28;20113;-95
2021/01/13 09:02:03;;;;;;;102.20;48.83;;;;;;;;;;4997581;28;20339;-91
2021/01/13 09:04:44;;;;;;;102.68;49.50;;;;;;;;;;4999124;28;20038;-93
2021/01/13 09:07:13;;;;;;;137.48;65.43;;;;;;;;;;4999301;28;20030;-93
2021/01/13 09:09:42;;;;;;;169.10;79.22;;;;;;;;;;4999343;28;20035;-91
2021/01/13 09:12:27;;;;;;;167.07;79.88;;;;;;;;;;5007655;28;20026;-92
2021/01/13 09:17:58;;;;;;;149.68;70.78;;;;;;;;;;5000337;28;20077;-95
2021/01/13 09:20:26;;;;;;;135.23;65.18;;;;;;;;;;4999016;28;20050;-92
2021/01/13 09:22:53;;;;;;;106.80;55.13;;;;;;;;;;4998877;28;20026;-93
2021/01/13 09:25:26;;;;;;;104.70;56.40;;;;;;;;;;5008905;28;20073;-95
2021/01/13 09:27:52;;;;;;;;;;;;;;;;;;5006813;28;20331;-92
2021/01/13 09:30:44;;;;;;;119.82;57.03;;;;;;;;;;4998657;28;20009;-89
2021/01/13 09:33:14;;;;;;;110.38;57.20;;;;;;;;;;5000106;28;20424;-89
2021/01/13 09:35:42;;;;;;;130.50;65.15;;;;;;;;;;5008776;28;20025;-90
2021/01/13 09:38:10;;;;;;;99.35;51.83;;;;;;;;;;5016429;28;20037;-90
2021/01/13 09:40:49;;;;;;;85.55;44.65;;;;;;;;;;5007678;28;20072;-92
2021/01/13 09:43:25;;;;;;;76.85;40.08;;;;;;;;;;4998571;28;20026;-90
2021/01/13 09:45:52;;;;;;;71.63;37.47;;;;;;;;;;4998158;28;20425;-92
2021/01/13 09:48:19;;;;;;;75.25;39.35;;;;;;;;;;5003467;28;20022;-91
2021/01/13 09:50:46;;;;;;;79.15;39.50;;;;;;;;;;4998231;28;20034;-90
2021/01/13 09:53:14;;;;;;;83.25;42.08;;;;;;;;;;4998398;28;20023;-90
2021/01/13 09:55:41;;;;;;;77.43;40.92;;;;;;;;;;4998261;28;20026;-90
2021/01/13 09:58:17;;;;;;;78.82;42.90;;;;;;;;;;4998098;28;20037;-89
2021/01/13 10:00:43;;;;;;;71.88;39.13;;;;;;;;;;4999108;28;20413;-90
2021/01/13 10:03:13;;;;;;;76.47;37.95;;;;;;;;;;5002186;28;20432;-90
2021/01/13 10:05:39;;;;;;;73.38;38.85;;;;;;;;;;5002103;28;20054;-88
2021/01/13 10:08:05;;;;;;;73.10;39.63;;;;;;;;;;5001099;28;20038;-90
2021/01/13 10:10:32;;;;;;;67.95;35.58;;;;;;;;;;5001790;28;20022;-90
2021/01/13 10:12:59;;;;;;;72.57;36.97;;;;;;;;;;5002237;28;20110;-90
2021/01/13 10:15:25;;;;;;;70.45;36.63;;;;;;;;;;5002168;28;20038;-90
2021/01/13 10:17:51;;;;;;;73.38;38.72;;;;;;;;;;5000473;28;20133;-91
2021/01/13 10:20:24;;;;;;;82.95;40.35;;;;;;;;;;5002038;28;20062;-89
2021/01/13 10:22:50;;;;;;;;;;;;;;;;;;5002296;28;20026;-89
2021/01/13 10:25:27;;;;;;;76.18;39.08;;;;;;;;;;5001775;28;19912;-90
2021/01/13 10:27:53;;;;;;;69.30;36.78;;;;;;;;;;5001676;28;20037;-89
2021/01/13 10:30:20;;;;;;;75.47;39.72;;;;;;;;;;5001536;28;20034;-89
2021/01/13 10:32:50;;;;;;;72.18;38.55;;;;;;;;;;5001362;28;20026;-88
2021/01/13 10:35:17;;;;;;;62.15;33.95;;;;;;;;;;5002076;28;20022;-90
2021/01/13 10:37:56;;;;;;;72.38;38.80;;;;;;;;;;5001703;28;20038;-89
2021/01/13 10:40:23;;;;;;;72.65;39.45;;;;;;;;;;5001378;28;20069;-89
2021/01/13 10:42:51;;;;;;;69.15;38.15;;;;;;;;;;5001614;28;20113;-88
2021/01/13 10:45:17;;;;;;;68.97;36.05;;;;;;;;;;5001585;28;20328;-89
2021/01/13 10:48:13;;;;;;;74.07;39.90;;;;;;;;;;5001464;28;20046;-89
2021/01/13 10:50:42;;;;;;;161.73;63.45;;;;;;;;;;4960732;28;20331;-89
2021/01/13 10:53:08;;;;;;;151.35;50.83;;;;;;;;;;4960784;29;20023;-89
2021/01/13 10:55:38;;;;;;;73.80;33.85;;;;;;;;;;4960929;29;20035;-89
2021/01/13 10:58:05;;;;;;;48.75;24.98;;;;;;;;;;4961023;29;20077;-89
2021/01/13 11:00:32;;;;;;;47.15;26.00;;;;;;;;;;4944698;29;20035;-88
2021/01/13 11:02:59;;;;;;;43.03;23.33;;;;;;;;;;4960610;29;20074;-88
2021/01/13 11:05:25;;;;;;;52.28;30.35;;;;;;;;;;4944552;29;20023;-88
2021/01/13 11:07:53;;;;;;;50.05;26.17;;;;;;;;;;4960564;29;20046;-88
2021/01/13 11:10:23;;;;;;;69.13;35.80;;;;;;;;;;4944322;29;20027;-88
2021/01/13 11:12:59;;;;;;;42.83;21.23;;;;;;;;;;4960065;28;20405;-90
2021/01/13 11:15:43;;;;;;;55.65;30.42;;;;;;;;;;4961215;29;20031;-90
2021/01/13 11:18:13;;;;;;;59.08;29.23;;;;;;;;;;4960912;28;20185;-89
2021/01/13 11:20:39;;;;;;;64.90;27.67;;;;;;;;;;4979715;28;20039;-89
2021/01/13 11:23:06;;;;;;;43.55;22.27;;;;;;;;;;4980013;28;20058;-89
2021/01/13 11:25:34;;;;;;;44.13;20.05;;;;;;;;;;4980019;28;20058;-90
2021/01/13 11:28:09;;;;;;;33.72;16.48;;;;;;;;;;5017008;28;20042;-90
2021/01/13 11:30:42;;;;;;;42.47;20.67;;;;;;;;;;5020232;28;20316;-89
2021/01/13 11:33:10;;;;;;;39.47;20.35;;;;;;;;;;5020513;28;20426;-85
2021/01/13 11:35:43;;;;;;;42.05;20.75;;;;;;;;;;5020100;28;20451;-89
2021/01/13 11:38:23;;;;;;;36.72;19.02;;;;;;;;;;5019067;28;20026;-90
2021/01/13 11:41:08;;;;;;;44.63;22.35;;;;;;;;;;5019153;28;20021;-89
2021/01/13 11:43:34;;;;;;;43.28;21.25;;;;;;;;;;5020300;28;20424;-89
2021/01/13 11:46:09;;;;;;;51.03;21.95;;;;;;;;;;5019093;28;20420;-89
2021/01/13 11:49:01;;;;;;;37.30;19.05;;;;;;;;;;5019814;28;20132;-89
2021/01/13 11:51:27;;;;;;;40.47;20.60;;;;;;;;;;4998480;28;20289;-90
2021/01/13 11:53:54;;;;;;;29.33;15.43;;;;;;;;;;4998413;28;20042;-89
2021/01/13 11:56:32;;;;;;;24.35;12.68;;;;;;;;;;4998423;28;20452;-89
2021/01/13 11:58:59;;;;;;;27.10;13.35;;;;;;;;;;4998629;28;20027;-89
2021/01/13 12:01:25;;;;;;;25.17;13.18;;;;;;;;;;4982201;28;20045;-89
2021/01/13 12:03:58;;;;;;;28.90;14.98;;;;;;;;;;4981792;28;20018;-89
2021/01/13 12:06:24;;;;;;;30.60;15.27;;;;;;;;;;4998293;28;20026;-89
2021/01/13 12:08:50;;;;;;;25.50;14.40;;;;;;;;;;4998390;28;20081;-90
2021/01/13 12:11:16;;;;;;;28.75;15.18;;;;;;;;;;4998433;28;20459;-90
2021/01/13 12:13:44;;;;;;;27.90;14.73;;;;;;;;;;4982294;28;20041;-90
2021/01/13 12:16:14;;;;;;;26.42;14.23;;;;;;;;;;4998127;28;20081;-90
2021/01/13 12:18:43;;;;;;;25.35;13.68;;;;;;;;;;4998152;28;20042;-90
2021/01/13 12:21:15;;;;;;;20.95;11.27;;;;;;;;;;4998147;28;20145;-89
2021/01/13 12:23:47;;;;;;;37.78;17.77;;;;;;;;;;4997242;28;20027;-90
2021/01/13 12:26:16;;;;;;;42.03;22.00;;;;;;;;;;4981708;28;20026;-89
2021/01/13 12:28:43;;;;;;;37.60;19.05;;;;;;;;;;5012873;28;20109;-89
2021/01/13 12:31:09;;;;;;;32.90;16.90;;;;;;;;;;5019089;28;20026;-89
2021/01/13 12:33:38;;;;;;;26.05;13.93;;;;;;;;;;5019041;28;20022;-89
2021/01/13 12:36:18;;;;;;;27.33;13.95;;;;;;;;;;5019371;28;20102;-89
2021/01/13 12:38:46;;;;;;;21.92;11.57;;;;;;;;;;5019014;28;20033;-89
2021/01/13 12:41:18;;;;;;;21.27;10.85;;;;;;;;;;5018084;28;20396;-90
2021/01/13 12:43:44;;;;;;;14.80;9.50;;;;;;;;;;5017522;28;20033;-90
2021/01/13 12:46:10;;;;;;;22.40;10.50;;;;;;;;;;5018588;28;20041;-90
2021/01/13 12:48:36;;;;;;;18.95;10.48;;;;;;;;;;5017477;28;20052;-89
2021/01/13 12:51:06;;;;;;;22.02;11.70;;;;;;;;;;5018773;28;20068;-89
2021/01/13 12:53:32;;;;;;;23.45;11.88;;;;;;;;;;5018348;28;20348;-90
2021/01/13 12:55:58;;;;;;;24.45;12.02;;;;;;;;;;5018600;28;20133;-88
2021/01/13 12:58:25;;;;;;;20.98;11.73;;;;;;;;;;5017621;28;20030;-88
2021/01/13 13:00:52;;;;;;;20.23;11.00;;;;;;;;;;5018809;28;20025;-88
2021/01/13 13:03:18;;;;;;;21.50;11.25;;;;;;;;;;5017673;28;20026;-89
2021/01/13 13:05:44;;;;;;;20.52;10.65;;;;;;;;;;5017511;28;20034;-88
2021/01/13 13:08:10;;;;;;;20.17;11.32;;;;;;;;;;5017335;28;20080;-88
2021/01/13 13:10:36;;;;;;;25.08;10.55;;;;;;;;;;5018487;28;20396;-88
2021/01/13 13:13:02;;;;;;;18.23;8.85;;;;;;;;;;5018273;28;20454;-88
2021/01/13 13:15:28;;;;;;;19.05;8.73;;;;;;;;;;5018245;28;20528;-89
2021/01/13 13:17:54;;;;;;;40.28;21.85;;;;;;;;;;5017242;28;20042;-87
2021/01/13 13:20:21;;;;;;;20.58;9.88;;;;;;;;;;5018455;28;20049;-88
2021/01/13 13:22:47;;;;;;;25.10;11.02;;;;;;;;;;5017702;28;20026;-87
2021/01/13 13:25:13;;;;;;;27.95;11.73;;;;;;;;;;5018423;28;20030;-87
2021/01/13 13:27:39;;;;;;;25.85;10.63;;;;;;;;;;5018065;28;20085;-87
2021/01/13 13:30:06;;;;;;;31.25;12.65;;;;;;;;;;5018137;28;20033;-88
2021/01/13 13:32:32;;;;;;;21.23;9.60;;;;;;;;;;5018037;28;20045;-88
2021/01/13 13:34:58;;;;;;;16.58;8.90;;;;;;;;;;5017641;28;20117;-89
2021/01/13 13:37:24;;;;;;;18.45;8.40;;;;;;;;;;5018001;28;20030;-88
2021/01/13 13:39:50;;;;;;;17.75;6.95;;;;;;;;;;5017018;28;20097;-88
2021/01/13 13:42:16;;;;;;;20.70;7.68;;;;;;;;;;5018041;28;20479;-87
2021/01/13 13:44:42;;;;;;;18.50;7.60;;;;;;;;;;5017015;28;20121;-87
2021/01/13 13:47:11;;;;;;;22.25;8.98;;;;;;;;;;5017966;28;20022;-88
2021/01/13 13:49:37;;;;;;;15.77;6.53;;;;;;;;;;5016765;28;20030;-89
2021/01/13 13:52:03;;;;;;;19.02;7.93;;;;;;;;;;5017644;28;20508;-88
2021/01/13 13:54:29;;;;;;;26.67;9.15;;;;;;;;;;5017979;28;20433;-88
2021/01/13 13:56:56;;;;;;;54.88;20.85;;;;;;;;;;5017799;28;20416;-89
2021/01/13 13:59:22;;;;;;;32.65;12.40;;;;;;;;;;5017927;28;20037;-88
2021/01/13 14:01:49;;;;;;;35.65;13.95;;;;;;;;;;5017619;28;20026;-89
2021/01/13 14:04:16;;;;;;;16.27;7.45;;;;;;;;;;5017728;28;20033;-88
2021/01/13 14:06:42;;;;;;;15.55;8.52;;;;;;;;;;5016060;28;20063;-88
2021/01/13 14:09:08;;;;;;;17.67;8.63;;;;;;;;;;5017781;28;20014;-88
2021/01/13 14:11:41;;;;;;;25.17;10.88;;;;;;;;;;5017735;28;20034;-87
2021/01/13 14:14:08;;;;;;;15.77;7.72;;;;;;;;;;5016260;28;20041;-87
2021/01/13 14:16:34;;;;;;;13.85;6.97;;;;;;;;;;5017385;28;20022;-91
2021/01/13 14:19:00;;;;;;;13.95;7.30;;;;;;;;;;5002868;28;20069;-91
2021/01/13 14:21:26;;;;;;;20.05;8.95;;;;;;;;;;5006574;28;20037;-86
2021/01/13 14:23:53;;;;;;;27.70;12.52;;;;;;;;;;5014686;28;20030;-85
2021/01/13 14:26:19;;;;;;;24.95;13.02;;;;;;;;;;4998140;28;20413;-86
2021/01/13 14:28:46;;;;;;;34.88;18.95;;;;;;;;;;4997987;28;20050;-87
2021/01/13 14:31:13;;;;;;;52.97;23.30;;;;;;;;;;5010930;28;20105;-87
2021/01/13 14:33:39;;;;;;;48.65;19.95;;;;;;;;;;5017335;28;20026;-88
2021/01/13 14:36:06;;;;;;;51.22;20.75;;;;;;;;;;5017798;28;20404;-88
2021/01/13 14:38:32;;;;;;;45.70;15.18;;;;;;;;;;5017560;28;20413;-86
2021/01/13 14:40:59;;;;;;;31.38;12.13;;;;;;;;;;5015962;28;20046;-88